LEMG/AGP METAR and TAF weather

Enter ICAO airport designator
Station Type Date Time Source
LEMG METAR 2021/07/30 06:00 UTC NOAA

LEMG 300600Z 31007KT CAVOK 23/20 Q1012 NOSIG


Station Type Date Time Source
LEMG Decoded METAR 2021/07/30 06:00 UTC NOAA

Malaga / Aeropuerto, Spain (LEMG) 36-40N 004-29W 7M
Jul 30, 2021 - 02:00 AM EDT / 2021.07.30 0600 UTC
Wind: from the NW (310 degrees) at 8 MPH (7 KT):0
Visibility: greater than 7 mile(s):0
Temperature: 73 F (23 C)
Dew Point: 68 F (20 C)
Relative Humidity: 83%
Pressure (altimeter): 29.88 in. Hg (1012 hPa)
ob: LEMG 300600Z 31007KT CAVOK 23/20 Q1012 NOSIG
cycle: 6

Station Type Date Time Source
LEMG TAF 2021/07/30 06:27 UTC NOAA

TAF LEMG 300500Z 3006/3106 29008KT CAVOK TX34/3011Z TN19/3104Z
TEMPO 3006/3008 4000 BR BKN009 PROB30
TEMPO 3006/3008 0500 FG
TEMPO 3010/3020 14009KT

Example: see airport list